Portada
METAR-TAF:

METAR-TAF

Aeroports :

Campo Grande, Mato Grosso do Sul, Brasil

latitud: 20-28S, longitud: 054-40W, altitud: 567 m

Observació

L'informe es va fer fa 30 minuts, a les 21:00 UTC
Vent 6 kt del Est/Sud-Est
Temperatura 24°C
Humitat 47%
Pressió 1019 hPa
Visibilitat 10 km o més
sense núvols per sota de 1500 mi sense presència de cumulonimbus.

METAR: SBCG 182100Z 12006KT CAVOK 24/12 Q1019

Hora: 17:30 (21:30 UTC)

Pronòstic

L'informe es va fer fa 6 hores i 0 minuts, a les 15:30 UTC
Pronòstic vàlid del 18 a les 18 UTC al 19 a les 18 UTC
Vent 5 kt del Est
Visibilitat 10 km o més
sense núvols per sota de 1500 mi sense presència de cumulonimbus.
Evolucionant progressivament
l' 19 a les 06 UTC al 19 a les 08 UTC
Vent 15 kt del Est/Nord-Est

TAF: SBCG 181530Z 1818/1918 09005KT CAVOK TX26/1818Z TN16/1908Z BECMG 1906/1908 07015KT RMK PDV

Observacions i pronòstics meteorològics de més de 4000 aeroports (METAR i TAF).

Les estacions disponibles són els punts grocs i vermells al mapa.

Posi el ratolí al punt desitjat per veure el nom de l'estació.

Feu clic per veure les observacions i els pronòstics meteorològics.

Per canviar el mapa: feu clic els botons verds amb una creu de color negre per apropar; al botó verd amb un guió per allunyar la imatge; o en les fletxes verdes per a mapes adjacents.


METAR-TAF: